createdAt,value
2019-03-21T00:00:30.627Z,5.67
2019-03-21T00:03:00.360Z,5.61
2019-03-21T00:05:32.738Z,5.49
2019-03-21T00:08:02.478Z,5.47
2019-03-21T00:11:15.820Z,5.18
2019-03-21T00:13:46.023Z,5.24
2019-03-21T00:16:15.830Z,5.25
2019-03-21T00:18:45.561Z,5.16
2019-03-21T00:21:15.329Z,5.16
2019-03-21T00:23:46.195Z,5.26
2019-03-21T00:26:16.292Z,5.02
2019-03-21T00:28:46.017Z,4.77
2019-03-21T00:31:17.288Z,4.65
2019-03-21T00:33:48.191Z,4.61
2019-03-21T00:36:17.899Z,4.64
2019-03-21T00:38:49.890Z,4.56
2019-03-21T00:41:21.255Z,4.71
2019-03-21T00:43:51.548Z,4.81
2019-03-21T00:46:21.918Z,4.85
2019-03-21T00:48:52.392Z,4.83
2019-03-21T00:51:22.109Z,4.75
2019-03-21T00:53:54.338Z,4.59
2019-03-21T00:56:25.322Z,4.64
2019-03-21T00:58:56.332Z,4.63
2019-03-21T01:01:26.052Z,4.63
2019-03-21T01:03:57.417Z,4.70
2019-03-21T01:06:27.852Z,4.68
2019-03-21T01:08:57.618Z,4.80
2019-03-21T01:11:27.370Z,4.73
2019-03-21T01:13:57.104Z,4.63
2019-03-21T01:16:27.242Z,4.74
2019-03-21T01:18:57.212Z,4.82
2019-03-21T01:21:27.484Z,4.78
2019-03-21T01:23:57.218Z,4.72
2019-03-21T01:26:27.266Z,4.68
2019-03-21T01:28:56.978Z,4.50
2019-03-21T01:31:26.676Z,4.37
2019-03-21T01:33:57.233Z,4.46
2019-03-21T01:36:28.026Z,4.52
2019-03-21T01:38:58.836Z,4.45
2019-03-21T01:41:28.861Z,4.36
2019-03-21T01:44:00.836Z,4.42
2019-03-21T01:46:31.119Z,4.29
2019-03-21T01:49:00.815Z,4.33
2019-03-21T01:51:31.512Z,4.34
2019-03-21T01:54:02.190Z,4.45
2019-03-21T01:56:34.229Z,4.29
2019-03-21T01:59:07.129Z,4.09
2019-03-21T02:01:40.093Z,4.06
2019-03-21T02:04:10.603Z,4.08
2019-03-21T02:06:40.355Z,4.19
2019-03-21T02:09:12.043Z,4.15
2019-03-21T02:11:44.229Z,4.16
2019-03-21T02:14:14.262Z,4.18
2019-03-21T02:16:46.618Z,4.16
2019-03-21T02:19:16.304Z,4.23
2019-03-21T02:21:46.900Z,4.21
2019-03-21T02:24:17.123Z,4.12
2019-03-21T02:26:51.144Z,4.15
2019-03-21T02:29:21.115Z,4.10
2019-03-21T02:31:51.471Z,3.92
2019-03-21T02:34:23.246Z,3.97
2019-03-21T02:36:57.571Z,3.84
2019-03-21T02:39:27.644Z,3.72
2019-03-21T02:41:57.627Z,3.76
2019-03-21T02:44:27.953Z,3.59
2019-03-21T02:47:00.711Z,3.61
2019-03-21T02:49:33.400Z,3.52
2019-03-21T02:52:03.162Z,3.49
2019-03-21T02:54:33.666Z,3.57
2019-03-21T02:57:06.216Z,3.50
2019-03-21T02:59:36.216Z,3.65
2019-03-21T03:02:08.492Z,3.61
2019-03-21T03:04:38.299Z,3.69
2019-03-21T03:07:08.535Z,3.54
2019-03-21T03:09:39.459Z,3.58
2019-03-21T03:12:09.463Z,3.60
2019-03-21T03:14:41.832Z,3.39
2019-03-21T03:17:13.538Z,3.28
2019-03-21T03:19:45.552Z,3.35
2019-03-21T03:22:19.528Z,3.43
2019-03-21T03:24:49.997Z,3.34
2019-03-21T03:27:20.322Z,3.13
2019-03-21T03:29:50.831Z,3.08
2019-03-21T03:32:20.534Z,2.99
2019-03-21T03:34:51.161Z,3.05
2019-03-21T03:37:24.944Z,3.06
2019-03-21T03:39:56.797Z,3.11
2019-03-21T03:42:28.537Z,3.16
2019-03-21T03:44:59.933Z,3.12
2019-03-21T03:47:29.897Z,3.16
2019-03-21T03:50:00.707Z,2.87
2019-03-21T03:52:30.341Z,2.95
2019-03-21T03:55:03.438Z,2.96
2019-03-21T03:57:33.121Z,3.05
2019-03-21T04:00:03.213Z,3.04
2019-03-21T04:02:34.577Z,2.92
2019-03-21T04:05:08.975Z,2.88
2019-03-21T04:07:39.423Z,2.84
2019-03-21T04:10:15.740Z,2.73
2019-03-21T04:12:46.397Z,2.83
2019-03-21T04:15:18.155Z,2.79
2019-03-21T04:17:49.555Z,2.64
2019-03-21T04:20:21.728Z,2.68
2019-03-21T04:22:51.850Z,2.61
2019-03-21T04:25:32.995Z,2.47
2019-03-21T04:28:03.972Z,2.46
2019-03-21T04:30:35.765Z,2.45
2019-03-21T04:33:06.306Z,2.37
2019-03-21T04:35:36.026Z,2.39
2019-03-21T04:38:06.209Z,2.44
2019-03-21T04:40:36.923Z,2.56
2019-03-21T04:43:06.891Z,2.52
2019-03-21T04:45:38.654Z,2.47
2019-03-21T04:48:08.385Z,2.41
2019-03-21T04:50:38.983Z,2.57
2019-03-21T04:53:08.706Z,2.59
2019-03-21T04:55:42.587Z,2.57
2019-03-21T04:58:12.448Z,2.68
2019-03-21T05:00:42.163Z,2.51
2019-03-21T05:03:12.305Z,2.43
2019-03-21T05:05:42.017Z,2.49
2019-03-21T05:08:11.762Z,2.46
2019-03-21T05:10:41.851Z,2.52
2019-03-21T05:13:14.744Z,2.63
2019-03-21T05:15:53.674Z,2.54
2019-03-21T05:18:45.093Z,2.46
2019-03-21T05:21:17.571Z,2.52
2019-03-21T05:23:47.985Z,2.63
2019-03-21T05:26:17.826Z,2.52
2019-03-21T05:28:47.883Z,2.45
2019-03-21T05:31:23.423Z,2.39
2019-03-21T05:34:05.408Z,2.35
2019-03-21T05:36:36.008Z,2.32
2019-03-21T05:39:08.797Z,2.31
2019-03-21T05:41:38.825Z,2.19
2019-03-21T05:44:17.134Z,2.22
2019-03-21T05:46:47.673Z,2.25
2019-03-21T05:49:18.171Z,2.27
2019-03-21T05:51:49.819Z,2.18
2019-03-21T05:54:21.508Z,2.16
2019-03-21T05:56:51.566Z,2.18
2019-03-21T05:59:26.478Z,2.06
2019-03-21T06:01:56.681Z,2.02
2019-03-21T06:04:31.433Z,2.08
2019-03-21T06:07:15.865Z,2.14
2019-03-21T06:09:45.578Z,2.22
2019-03-21T06:12:15.274Z,2.17
2019-03-21T06:14:53.160Z,2.26
2019-03-21T06:17:31.774Z,2.21
2019-03-21T06:20:28.879Z,2.23
2019-03-21T06:23:17.447Z,2.35
2019-03-21T06:26:18.618Z,2.37
2019-03-21T06:28:48.494Z,2.42
2019-03-21T06:31:18.320Z,2.70
2019-03-21T06:34:01.205Z,2.74
2019-03-21T06:36:33.211Z,2.81
2019-03-21T06:39:07.022Z,2.95
2019-03-21T06:41:47.581Z,2.99
2019-03-21T06:44:19.953Z,3.11
2019-03-21T06:46:50.720Z,3.23
2019-03-21T06:49:20.846Z,3.27
2019-03-21T06:51:51.642Z,3.39
2019-03-21T06:54:26.429Z,3.49
2019-03-21T06:56:57.723Z,3.56
2019-03-21T06:59:28.271Z,3.67
2019-03-21T07:01:58.287Z,3.70
2019-03-21T07:04:28.446Z,3.83
2019-03-21T07:07:07.646Z,3.91
2019-03-21T07:09:29.607Z,4.00
2019-03-21T07:12:16.218Z,4.10
2019-03-21T07:14:46.774Z,4.23
2019-03-21T07:17:23.171Z,4.34
2019-03-21T07:19:53.018Z,4.36
2019-03-21T07:22:23.800Z,4.45
2019-03-21T07:24:54.185Z,4.52
2019-03-21T07:27:29.683Z,4.49
2019-03-21T07:29:59.907Z,4.54
2019-03-21T07:32:33.600Z,4.60
2019-03-21T07:35:02.006Z,4.65
2019-03-21T07:37:32.931Z,4.88
2019-03-21T07:40:02.672Z,4.86
2019-03-21T07:42:32.411Z,5.06
2019-03-21T07:45:02.152Z,5.16
2019-03-21T07:47:33.967Z,5.18
2019-03-21T07:50:04.091Z,5.36
2019-03-21T07:52:34.103Z,5.36
2019-03-21T07:55:04.441Z,5.53
2019-03-21T07:57:36.530Z,5.73
2019-03-21T08:00:08.693Z,5.87
2019-03-21T08:02:38.443Z,6.06
2019-03-21T08:05:08.922Z,6.22
2019-03-21T08:07:38.644Z,6.35
2019-03-21T08:10:10.048Z,6.40
2019-03-21T08:12:40.998Z,6.62
2019-03-21T08:15:11.543Z,6.65
2019-03-21T08:17:41.661Z,6.62
2019-03-21T08:20:12.227Z,6.92
2019-03-21T08:22:42.821Z,7.14
2019-03-21T08:25:13.135Z,7.26
2019-03-21T08:27:43.509Z,7.43
2019-03-21T08:30:27.327Z,7.61
2019-03-21T08:32:56.887Z,7.61
2019-03-21T08:35:26.614Z,7.84
2019-03-21T08:37:56.337Z,7.89
2019-03-21T08:40:28.279Z,8.14
2019-03-21T08:43:05.485Z,8.39
2019-03-21T08:45:35.754Z,8.43
2019-03-21T08:48:06.120Z,8.57
2019-03-21T08:50:37.474Z,8.79
2019-03-21T08:53:07.478Z,8.81
2019-03-21T08:55:42.987Z,9.14
2019-03-21T08:58:12.823Z,9.33
2019-03-21T09:00:44.561Z,9.65
2019-03-21T09:03:14.985Z,9.88
2019-03-21T09:05:45.037Z,9.97
2019-03-21T09:08:15.583Z,9.95
2019-03-21T09:10:48.003Z,10.06
2019-03-21T09:13:21.596Z,9.67
2019-03-21T09:15:53.889Z,9.88
2019-03-21T09:18:23.912Z,10.19
2019-03-21T09:20:54.138Z,9.97
2019-03-21T09:23:25.679Z,10.51
2019-03-21T09:25:55.801Z,10.87
2019-03-21T09:28:28.998Z,10.96
2019-03-21T09:30:58.764Z,11.13
2019-03-21T09:33:29.255Z,11.34
2019-03-21T09:35:59.002Z,11.54
2019-03-21T09:38:28.707Z,11.42
2019-03-21T09:40:58.570Z,11.97
2019-03-21T09:43:28.631Z,12.14
2019-03-21T09:45:58.371Z,12.55
2019-03-21T09:48:28.409Z,12.72
2019-03-21T09:50:59.843Z,13.07
2019-03-21T09:53:29.878Z,13.12
2019-03-21T09:56:01.282Z,13.26
2019-03-21T09:58:31.077Z,13.04
2019-03-21T10:01:02.873Z,13.20
2019-03-21T10:03:35.632Z,13.07
2019-03-21T10:06:05.753Z,13.72
2019-03-21T10:08:36.926Z,13.72
2019-03-21T10:11:07.016Z,13.62
2019-03-21T10:13:39.573Z,13.75
2019-03-21T10:16:10.700Z,13.78
2019-03-21T10:18:40.699Z,14.18
2019-03-21T10:21:11.271Z,14.52
2019-03-21T10:23:41.626Z,14.60
2019-03-21T10:26:12.980Z,14.61
2019-03-21T10:28:54.449Z,15.00
2019-03-21T10:31:24.991Z,14.35
2019-03-21T10:33:55.814Z,14.98
2019-03-21T10:36:31.184Z,14.85
2019-03-21T10:39:00.879Z,14.93
2019-03-21T10:41:31.406Z,14.88
2019-03-21T10:44:02.177Z,15.07
2019-03-21T10:46:32.460Z,15.18
2019-03-21T10:49:02.152Z,15.76
2019-03-21T10:51:32.224Z,15.96
2019-03-21T10:54:03.329Z,16.24
2019-03-21T10:56:36.213Z,16.22
2019-03-21T10:59:07.147Z,16.50
2019-03-21T11:01:36.897Z,16.70
2019-03-21T11:04:06.644Z,16.99
2019-03-21T11:06:36.692Z,16.84
2019-03-21T11:09:09.197Z,17.24
2019-03-21T11:11:41.090Z,17.35
2019-03-21T11:14:11.395Z,17.09
2019-03-21T11:16:41.849Z,17.35
2019-03-21T11:19:12.116Z,17.15
2019-03-21T11:21:43.278Z,17.43
2019-03-21T11:24:13.537Z,17.26
2019-03-21T11:26:43.338Z,17.66
2019-03-21T11:29:15.006Z,17.64
2019-03-21T11:31:45.095Z,17.83
2019-03-21T11:34:19.687Z,18.26
2019-03-21T11:36:49.737Z,17.97
2019-03-21T11:39:20.626Z,18.15
2019-03-21T11:41:51.034Z,18.20
2019-03-21T11:44:21.578Z,17.74
2019-03-21T11:46:51.517Z,17.39
2019-03-21T11:49:21.580Z,18.11
2019-03-21T11:51:51.229Z,17.97
2019-03-21T11:54:20.947Z,18.71
2019-03-21T11:56:51.413Z,18.13
2019-03-21T11:59:21.413Z,18.15
2019-03-21T12:01:52.265Z,18.75
2019-03-21T12:04:22.002Z,18.65
2019-03-21T12:06:52.286Z,19.29
2019-03-21T12:09:22.383Z,18.72
2019-03-21T12:11:54.302Z,18.60
2019-03-21T12:14:32.507Z,19.10
2019-03-21T12:17:05.147Z,19.18
2019-03-21T12:19:46.454Z,19.12
2019-03-21T12:22:29.469Z,19.30
2019-03-21T12:24:52.472Z,19.81
2019-03-21T12:27:24.476Z,19.65
2019-03-21T12:29:56.221Z,19.99
2019-03-21T12:32:28.054Z,19.27
2019-03-21T12:34:59.617Z,20.28
2019-03-21T12:37:29.336Z,20.43
2019-03-21T12:39:59.121Z,20.15
2019-03-21T12:42:30.334Z,20.65
2019-03-21T12:45:02.784Z,20.66
2019-03-21T12:47:39.319Z,20.95
2019-03-21T12:50:31.131Z,21.14
2019-03-21T12:53:04.366Z,21.38
2019-03-21T12:55:37.375Z,20.90
2019-03-21T12:58:12.393Z,20.67
2019-03-21T13:00:55.156Z,20.46
2019-03-21T13:03:27.135Z,20.25
2019-03-21T13:05:58.008Z,20.30
2019-03-21T13:08:33.961Z,20.25
2019-03-21T13:11:14.361Z,20.36
2019-03-21T13:13:47.668Z,21.01
2019-03-21T13:16:21.260Z,21.15
2019-03-21T13:18:51.342Z,21.25
2019-03-21T13:21:21.419Z,21.20
2019-03-21T13:23:51.811Z,21.31
2019-03-21T13:26:21.950Z,20.80
2019-03-21T13:28:51.932Z,21.37
2019-03-21T13:31:22.314Z,20.47
2019-03-21T13:33:52.072Z,19.48
2019-03-21T13:36:23.287Z,18.73
2019-03-21T13:38:53.822Z,19.21
2019-03-21T13:41:27.537Z,19.84
2019-03-21T13:43:58.117Z,20.63
2019-03-21T13:46:29.998Z,21.09
2019-03-21T13:49:06.168Z,21.23
2019-03-21T13:51:36.603Z,21.84
2019-03-21T13:54:08.663Z,22.41
2019-03-21T13:56:38.569Z,21.11
2019-03-21T13:59:09.067Z,21.43
2019-03-21T14:01:40.407Z,22.22
2019-03-21T14:04:12.431Z,22.48
2019-03-21T14:06:46.024Z,22.03
2019-03-21T14:09:16.721Z,21.79
2019-03-21T14:11:47.431Z,21.70
2019-03-21T14:14:18.472Z,21.52
2019-03-21T14:16:51.143Z,21.52
2019-03-21T14:19:22.061Z,21.71
2019-03-21T14:21:52.098Z,21.49
2019-03-21T14:24:21.849Z,21.29
2019-03-21T14:26:51.574Z,21.20
2019-03-21T14:29:22.072Z,21.36
2019-03-21T14:31:51.798Z,21.12
2019-03-21T14:34:24.213Z,20.13
2019-03-21T14:36:54.504Z,20.27
2019-03-21T14:39:24.302Z,21.26
2019-03-21T14:41:54.482Z,21.45
2019-03-21T14:44:26.656Z,21.91
2019-03-21T14:47:00.433Z,22.46
2019-03-21T14:49:33.271Z,22.80
2019-03-21T14:52:03.924Z,23.07
2019-03-21T14:54:35.743Z,23.86
2019-03-21T14:57:06.426Z,23.86
2019-03-21T14:59:36.666Z,24.56
2019-03-21T15:02:06.417Z,24.88
2019-03-21T15:04:37.923Z,24.77
2019-03-21T15:07:09.605Z,24.56
2019-03-21T15:09:40.399Z,24.54
2019-03-21T15:12:15.376Z,24.84
2019-03-21T15:14:45.738Z,24.53
2019-03-21T15:17:15.534Z,24.93
2019-03-21T15:19:46.046Z,25.37
2019-03-21T15:22:18.352Z,25.17
2019-03-21T15:24:48.611Z,24.73
2019-03-21T15:27:18.396Z,25.13
2019-03-21T15:29:49.269Z,25.14
2019-03-21T15:32:18.999Z,24.67
2019-03-21T15:34:48.770Z,25.12
2019-03-21T15:37:21.918Z,25.73
2019-03-21T15:39:52.261Z,26.16
2019-03-21T15:42:22.847Z,26.37
2019-03-21T15:44:52.581Z,26.32
2019-03-21T15:47:22.738Z,27.05
2019-03-21T15:49:55.109Z,26.84
2019-03-21T15:52:24.851Z,26.90
2019-03-21T15:54:54.555Z,26.97
2019-03-21T15:57:24.670Z,27.41
2019-03-21T15:59:54.644Z,26.31
2019-03-21T16:02:24.782Z,26.75
2019-03-21T16:04:54.853Z,27.36
2019-03-21T16:07:25.652Z,27.60
2019-03-21T16:09:56.051Z,27.38
2019-03-21T16:12:34.788Z,28.30
2019-03-21T16:15:06.478Z,28.75
2019-03-21T16:17:38.921Z,29.27
2019-03-21T16:20:10.346Z,28.72
2019-03-21T16:22:41.393Z,29.49
2019-03-21T16:25:12.963Z,28.89
2019-03-21T16:27:48.054Z,29.80
2019-03-21T16:30:17.779Z,29.10
2019-03-21T16:32:48.063Z,29.14
2019-03-21T16:35:20.439Z,28.78
2019-03-21T16:37:53.891Z,29.80
2019-03-21T16:40:23.819Z,29.13
2019-03-21T16:42:54.410Z,29.14
2019-03-21T16:45:25.330Z,28.73
2019-03-21T16:47:56.878Z,28.21
2019-03-21T16:50:27.435Z,28.02
2019-03-21T16:52:57.185Z,28.22
2019-03-21T16:55:28.112Z,28.30
2019-03-21T16:57:57.921Z,27.88
2019-03-21T17:00:28.928Z,28.11
2019-03-21T17:02:58.706Z,28.17
2019-03-21T17:05:30.179Z,28.02
2019-03-21T17:08:10.380Z,26.37
2019-03-21T17:10:32.527Z,26.19
2019-03-21T17:13:04.519Z,25.95
2019-03-21T17:15:36.762Z,25.31
2019-03-21T17:18:06.505Z,25.15
2019-03-21T17:20:36.211Z,25.01
2019-03-21T17:23:06.561Z,24.67
2019-03-21T17:25:36.264Z,23.97
2019-03-21T17:28:07.023Z,23.06
2019-03-21T17:30:39.293Z,22.78
2019-03-21T17:33:09.697Z,21.71
2019-03-21T17:35:39.392Z,20.23
2019-03-21T17:38:09.792Z,20.08
2019-03-21T17:40:39.512Z,19.69
2019-03-21T17:43:12.082Z,19.38
2019-03-21T17:45:42.174Z,19.26
2019-03-21T17:48:12.964Z,18.99
2019-03-21T17:50:42.941Z,18.75
2019-03-21T17:53:12.983Z,18.70
2019-03-21T17:55:43.517Z,18.50
2019-03-21T17:58:16.180Z,18.53
2019-03-21T18:00:48.542Z,18.05
2019-03-21T18:03:18.864Z,17.90
2019-03-21T18:05:51.736Z,17.80
2019-03-21T18:08:26.372Z,17.85
2019-03-21T18:10:57.411Z,17.54
2019-03-21T18:13:29.034Z,17.46
2019-03-21T18:16:02.043Z,17.01
2019-03-21T18:18:32.082Z,17.11
2019-03-21T18:21:02.719Z,16.80
2019-03-21T18:23:34.369Z,16.78
2019-03-21T18:26:06.673Z,16.34
2019-03-21T18:28:37.051Z,16.37
2019-03-21T18:31:07.161Z,16.38
2019-03-21T18:33:36.912Z,16.02
2019-03-21T18:36:09.074Z,16.24
2019-03-21T18:38:40.152Z,15.83
2019-03-21T18:41:11.958Z,15.88
2019-03-21T18:43:44.298Z,15.84
2019-03-21T18:46:14.667Z,15.58
2019-03-21T18:48:47.442Z,15.64
2019-03-21T18:51:17.713Z,15.57
2019-03-21T18:53:47.730Z,15.61
2019-03-21T18:56:17.843Z,15.35
2019-03-21T18:58:49.128Z,15.27
2019-03-21T19:01:19.410Z,15.21
2019-03-21T19:03:49.412Z,15.12
2019-03-21T19:06:20.026Z,14.96
2019-03-21T19:08:54.038Z,14.83
2019-03-21T19:11:26.008Z,14.76
2019-03-21T19:13:58.387Z,14.69
2019-03-21T19:16:32.174Z,14.70
2019-03-21T19:19:04.830Z,14.79
2019-03-21T19:21:36.503Z,14.79
2019-03-21T19:24:07.565Z,14.43
2019-03-21T19:26:38.727Z,14.35
2019-03-21T19:29:09.666Z,14.27
2019-03-21T19:31:43.165Z,14.09
2019-03-21T19:34:13.506Z,14.09
2019-03-21T19:36:43.344Z,13.99
2019-03-21T19:39:16.826Z,13.90
2019-03-21T19:41:46.886Z,13.89
2019-03-21T19:44:17.429Z,13.64
2019-03-21T19:46:48.722Z,13.50
2019-03-21T19:49:20.056Z,13.26
2019-03-21T19:51:50.639Z,13.15
2019-03-21T19:54:21.853Z,13.21
2019-03-21T19:56:54.593Z,13.22
2019-03-21T19:59:26.368Z,13.15
2019-03-21T20:01:59.781Z,13.17
2019-03-21T20:04:30.485Z,13.26
2019-03-21T20:07:00.741Z,13.21
2019-03-21T20:09:31.411Z,12.99
2019-03-21T20:12:02.644Z,12.95
2019-03-21T20:14:32.765Z,12.77
2019-03-21T20:17:04.747Z,12.67
2019-03-21T20:19:39.467Z,12.69
2019-03-21T20:22:09.529Z,12.71
2019-03-21T20:24:40.194Z,12.67
2019-03-21T20:27:10.755Z,12.38
2019-03-21T20:29:42.273Z,12.35
2019-03-21T20:32:20.562Z,12.12
2019-03-21T20:34:44.150Z,12.20
2019-03-21T20:37:14.005Z,12.06
2019-03-21T20:39:45.062Z,12.14
2019-03-21T20:42:14.771Z,12.24
2019-03-21T20:44:44.550Z,12.31
2019-03-21T20:47:14.297Z,12.21
2019-03-21T20:49:44.422Z,12.23
2019-03-21T20:52:15.449Z,12.28
2019-03-21T20:54:45.223Z,12.39
2019-03-21T20:57:15.272Z,12.43
2019-03-21T20:59:46.217Z,12.45
2019-03-21T21:02:16.525Z,12.15
2019-03-21T21:04:47.252Z,11.79
2019-03-21T21:07:17.894Z,11.72
2019-03-21T21:09:48.310Z,11.70
2019-03-21T21:12:21.814Z,11.66
2019-03-21T21:14:52.332Z,11.60
2019-03-21T21:17:23.586Z,11.45
2019-03-21T21:19:55.640Z,11.40
2019-03-21T21:22:41.219Z,11.34
2019-03-21T21:25:11.897Z,11.21
2019-03-21T21:27:49.476Z,11.19
2019-03-21T21:30:15.298Z,11.29
2019-03-21T21:32:45.024Z,11.10
2019-03-21T21:35:15.619Z,11.07
2019-03-21T21:37:46.456Z,10.78
2019-03-21T21:40:17.542Z,10.98
2019-03-21T21:42:47.275Z,10.96
2019-03-21T21:45:17.195Z,10.89
2019-03-21T21:47:48.068Z,11.02
2019-03-21T21:50:20.187Z,11.06
2019-03-21T21:52:51.094Z,10.80
2019-03-21T21:55:21.188Z,10.81
2019-03-21T21:57:51.756Z,10.86
2019-03-21T22:00:21.716Z,10.94
2019-03-21T22:02:53.754Z,10.89
2019-03-21T22:05:23.517Z,10.87
2019-03-21T22:07:54.122Z,10.69
2019-03-21T22:10:29.425Z,10.66
2019-03-21T22:12:58.974Z,10.59
2019-03-21T22:15:30.691Z,10.48
2019-03-21T22:18:00.407Z,10.41
2019-03-21T22:20:32.079Z,10.39
2019-03-21T22:23:01.790Z,10.41
2019-03-21T22:25:31.878Z,10.26
2019-03-21T22:28:01.861Z,10.10
2019-03-21T22:30:32.640Z,10.36
2019-03-21T22:33:02.200Z,10.25
2019-03-21T22:35:32.087Z,9.99
2019-03-21T22:38:02.279Z,9.98
2019-03-21T22:40:34.565Z,9.82
2019-03-21T22:43:04.956Z,9.91
2019-03-21T22:45:34.723Z,9.78
2019-03-21T22:48:04.583Z,9.59
2019-03-21T22:50:35.253Z,9.58
2019-03-21T22:53:06.642Z,9.42
2019-03-21T22:55:36.405Z,9.50
2019-03-21T22:58:06.513Z,9.52
2019-03-21T23:00:44.504Z,9.28
2019-03-21T23:03:14.692Z,9.13
2019-03-21T23:05:54.944Z,9.13
2019-03-21T23:08:27.181Z,9.14
2019-03-21T23:10:57.808Z,9.02
2019-03-21T23:13:29.877Z,8.97
2019-03-21T23:15:59.929Z,8.74
2019-03-21T23:18:31.695Z,8.72
2019-03-21T23:21:02.909Z,8.81
2019-03-21T23:23:32.919Z,8.81
2019-03-21T23:26:03.238Z,8.68
2019-03-21T23:28:32.978Z,8.72
2019-03-21T23:31:02.704Z,8.80
2019-03-21T23:33:32.446Z,8.92
2019-03-21T23:36:02.155Z,8.86
2019-03-21T23:38:31.919Z,8.96
2019-03-21T23:41:02.460Z,8.98
2019-03-21T23:43:33.871Z,8.75
2019-03-21T23:46:03.836Z,8.57
2019-03-21T23:48:33.589Z,8.45
2019-03-21T23:51:04.767Z,8.44
2019-03-21T23:53:35.579Z,8.50
2019-03-21T23:56:06.930Z,8.43
2019-03-21T23:58:40.476Z,8.35
